Pittsfield, IL

2:18 PM CST on December 17, 2014 (GMT -0600)
Pittsfield Penstone Municipal | Change Station
CLOSE
Current Station
Airport
Location: Pittsfield,
Elevation: 709 ft
Nearby Weather Stations

Elev 709 ft 39.64 °N, 90.78 °W | Updated 23 minutes ago

Scattered Clouds
Scattered Clouds
30 °F
Feels Like 24 °F
N
6
Wind Variable Wind from WNW

Today
High -- | Low -- °F
--% Chance of Precip.
Yesterday
High -- | Low -- °F
Precip. -- in
7:18 AM 4:40 PM
Waning Crescent, 20% visible
Pressure 30.29 in
Visibility 10.0 miles
Clouds Scattered Clouds 1400 ft
Windchill 24 °F
Dew Point 22 °F
Humidity 73%
Rainfall 0.00 in
Snow Depth Not available.
UV 1 out of 12
Pollen .30 out of 12
Air Quality Not available.
Flu Activity Not available.
METAR KPPQ 171955Z AUTO 30005KT 10SM SCT014 M01/M05 A3029 RMK AO2 T10121054

More Conditions Fewer Conditions

Pressure 30.29 in
Visibility 10.0 miles
Clouds Scattered Clouds 1400 ft
Windchill 24 °F
Dew Point 22 °F
Humidity 73%
Rainfall 0.00 in
Snow Depth Not available.
UV 1 out of 12
Pollen .30 out of 12
Air Quality Not available.
Flu Activity Not available.
METAR KPPQ 171955Z AUTO 30005KT 10SM SCT014 M01/M05 A3029 RMK AO2 T10121054

More Conditions Fewer Conditions

10-Day Weather Forecast

Almanac

Astronomy

Dec. 17, 2014 Rise Set
Actual Time
Civil Twilight
Nautical Twilight
Astronomical Twilight
Moon
Length of Visible Light
Length of Day
Tomorrow will be .
, % of the Moon is Illuminated

Today's Extremes

State Highs State Lows

Community

WunderPhotos

Upload Photos

1,778,802 photos uploaded!

WunderBlogs® & News

Nearby

Air Quality

  Air Quality AQ Index Pollutant
Not available.

Snow Depth

Station Depth Elevation

Earthquake Activity

City Distance Mag. Time & Date
Minimum magnitude displayed is 2.5.

Coastal Water Temperatures

Place Temperature

Nearby Weather Stations